Oakland Park, Florida
Current Conditions -  °F | °C
As of 2:53 AM on Friday 21 Nov 2014 (Local Time) from KLEE Reporting Station
Clear Clear  
Wind Chill: 50°   Ceiling: Unl
Heat Index: 50°   Visibility: 10mi
Dew Point: 38°   Wind: 5mph
Humidity: 63%   Direction: 30°NNE
Pressure: 30.24"   Gusts: NA
Location:  28.8°N, 81.68°W
Report Text: KLEE 210753Z AUTO 03004KT 10SM CLR 10/03 A3024 RMK AO2 SLP238 T01000033
Loading
Personal Weather Stations






























Interactive Weather Map New forecast layout! Learn more

10-Day Weather Forecast

Advertisements
Track Severe Weather on mobile